Time;durP1;ratioP1;P1;durP2;ratioP2;P2;SDS_P1;SDS_P2;PMS_P1;PMS_P2;Temp;Humidity;BMP_temperature;BMP_pressure;BME280_temperature;BME280_humidity;BME280_pressure;Samples;Min_cycle;Max_cycle;Signal;HPM_P1;HPM_P2
2021/01/19 00:01:40;;;;;;;284.43;93.43;;;;;;;;;;5011602;28;20169;-87
2021/01/19 00:04:07;;;;;;;281.17;87.87;;;;;;;;;;5016079;28;20172;-87
2021/01/19 00:06:32;;;;;;;277.40;87.67;;;;;;;;;;5016805;28;20173;-87
2021/01/19 00:08:57;;;;;;;278.33;88.07;;;;;;;;;;5015355;28;20207;-87
2021/01/19 00:11:24;;;;;;;280.80;87.70;;;;;;;;;;5015114;28;20191;-87
2021/01/19 00:13:50;;;;;;;278.63;84.73;;;;;;;;;;5016746;28;20196;-87
2021/01/19 00:16:15;;;;;;;268.23;87.17;;;;;;;;;;5015918;28;20185;-87
2021/01/19 00:18:40;;;;;;;247.40;84.63;;;;;;;;;;5014952;28;20185;-87
2021/01/19 00:21:07;;;;;;;273.70;84.43;;;;;;;;;;5014889;28;20185;-87
2021/01/19 00:23:32;;;;;;;257.67;83.63;;;;;;;;;;5016491;28;20248;-87
2021/01/19 00:25:59;;;;;;;257.90;81.30;;;;;;;;;;5015133;28;20208;-87
2021/01/19 00:28:24;;;;;;;257.50;81.50;;;;;;;;;;5015949;28;20215;-87
2021/01/19 00:30:50;;;;;;;241.23;78.03;;;;;;;;;;5014723;28;20605;-87
2021/01/19 00:33:15;;;;;;;253.17;76.93;;;;;;;;;;5016227;28;20169;-87
2021/01/19 00:35:41;;;;;;;237.50;77.20;;;;;;;;;;5014878;28;20177;-87
2021/01/19 00:38:06;;;;;;;246.57;75.80;;;;;;;;;;5014788;28;20191;-87
2021/01/19 00:40:33;;;;;;;250.80;77.90;;;;;;;;;;5015059;28;20169;-87
2021/01/19 00:42:58;;;;;;;233.90;76.03;;;;;;;;;;5016859;28;20494;-87
2021/01/19 00:45:24;;;;;;;192.23;67.37;;;;;;;;;;5016088;28;20310;-87
2021/01/19 00:47:49;;;;;;;234.40;75.67;;;;;;;;;;5015573;28;20192;-87
2021/01/19 00:50:15;;;;;;;202.33;70.73;;;;;;;;;;5014537;28;20184;-87
2021/01/19 00:52:40;;;;;;;206.60;69.53;;;;;;;;;;5015821;28;20177;-87
2021/01/19 00:55:09;;;;;;;254.53;79.27;;;;;;;;;;5014691;28;20204;-87
2021/01/19 00:57:35;;;;;;;238.90;77.50;;;;;;;;;;5015175;28;20237;-87
2021/01/19 01:00:00;;;;;;;235.40;77.17;;;;;;;;;;5015939;28;20251;-86
2021/01/19 01:02:25;;;;;;;212.53;70.43;;;;;;;;;;5015716;28;20184;-86
2021/01/19 01:04:51;;;;;;;204.30;67.53;;;;;;;;;;5015374;28;20204;-86
2021/01/19 01:07:16;;;;;;;208.20;68.73;;;;;;;;;;5015435;28;20256;-87
2021/01/19 01:09:42;;;;;;;207.80;69.50;;;;;;;;;;5014021;28;20561;-87
2021/01/19 01:12:08;;;;;;;193.90;67.17;;;;;;;;;;5014049;28;20268;-87
2021/01/19 01:14:33;;;;;;;181.17;64.47;;;;;;;;;;5014316;28;20662;-87
2021/01/19 01:17:00;;;;;;;196.13;65.37;;;;;;;;;;5015631;28;20169;-87
2021/01/19 01:19:27;;;;;;;247.40;79.73;;;;;;;;;;5015512;28;20216;-87
2021/01/19 01:21:52;;;;;;;186.23;66.87;;;;;;;;;;5015367;28;20176;-87
2021/01/19 01:24:17;;;;;;;177.83;61.53;;;;;;;;;;5013980;28;20177;-87
2021/01/19 01:26:44;;;;;;;165.83;59.27;;;;;;;;;;5013993;28;20185;-87
2021/01/19 01:29:09;;;;;;;165.97;57.27;;;;;;;;;;5015353;28;20201;-87
2021/01/19 01:31:35;;;;;;;166.63;55.40;;;;;;;;;;5014158;28;20185;-87
2021/01/19 01:34:01;;;;;;;160.53;57.70;;;;;;;;;;5013790;28;20188;-87
2021/01/19 01:36:26;;;;;;;157.70;56.43;;;;;;;;;;5013821;28;20181;-87
2021/01/19 01:38:51;;;;;;;152.43;54.93;;;;;;;;;;5013683;28;20635;-86
2021/01/19 01:41:18;;;;;;;157.13;56.87;;;;;;;;;;5014577;28;20209;-86
2021/01/19 01:43:44;;;;;;;166.73;59.10;;;;;;;;;;5014864;28;20181;-87
2021/01/19 01:46:16;;;;;;;164.70;56.87;;;;;;;;;;5014768;28;20192;-86
2021/01/19 01:48:42;;;;;;;168.27;62.67;;;;;;;;;;5014960;28;20557;-86
2021/01/19 01:51:09;;;;;;;173.50;63.60;;;;;;;;;;5013478;28;20624;-87
2021/01/19 01:53:34;;;;;;;161.30;59.07;;;;;;;;;;5014665;28;20263;-86
2021/01/19 01:56:00;;;;;;;146.47;54.57;;;;;;;;;;5013726;28;20593;-87
2021/01/19 01:58:26;;;;;;;171.87;60.10;;;;;;;;;;5012792;28;20233;-86
2021/01/19 02:00:53;;;;;;;173.80;59.43;;;;;;;;;;5014519;28;20177;-88
2021/01/19 02:03:18;;;;;;;165.27;60.17;;;;;;;;;;5014362;28;20177;-88
2021/01/19 02:05:43;;;;;;;158.83;56.87;;;;;;;;;;5013016;28;20196;-88
2021/01/19 02:08:22;;;;;;;169.50;59.67;;;;;;;;;;5012586;28;20239;-88
2021/01/19 02:10:50;;;;;;;168.17;62.00;;;;;;;;;;5014423;28;20244;-87
2021/01/19 02:13:26;;;;;;;147.60;55.57;;;;;;;;;;5014723;28;20193;-88
2021/01/19 02:15:57;;;;;;;168.87;60.83;;;;;;;;;;5013294;28;20177;-88
2021/01/19 02:18:41;;;;;;;153.10;55.73;;;;;;;;;;5014295;28;20569;-87
2021/01/19 02:21:27;;;;;;;141.77;54.00;;;;;;;;;;5013188;28;20204;-87
2021/01/19 02:24:03;;;;;;;150.23;52.20;;;;;;;;;;5014475;28;20169;-88
2021/01/19 02:26:41;;;;;;;136.07;50.67;;;;;;;;;;5012937;28;20188;-88
2021/01/19 02:29:26;;;;;;;141.23;52.87;;;;;;;;;;5012852;28;20233;-87
2021/01/19 02:32:01;;;;;;;141.47;52.73;;;;;;;;;;4993034;28;20181;-88
2021/01/19 02:34:39;;;;;;;149.17;52.63;;;;;;;;;;5012820;28;20272;-87
2021/01/19 02:37:07;;;;;;;152.03;58.23;;;;;;;;;;5013890;28;20260;-87
2021/01/19 02:39:47;;;;;;;142.87;53.33;;;;;;;;;;5012874;28;20200;-86
2021/01/19 02:42:17;;;;;;;160.30;56.60;;;;;;;;;;5014318;28;20173;-86
2021/01/19 02:44:44;;;;;;;152.60;55.17;;;;;;;;;;5014147;28;20260;-86
2021/01/19 02:47:10;;;;;;;152.70;56.17;;;;;;;;;;5013893;28;20560;-86
2021/01/19 02:49:35;;;;;;;163.13;56.43;;;;;;;;;;5014243;28;20181;-87
2021/01/19 02:52:01;;;;;;;138.13;51.03;;;;;;;;;;5014219;28;20295;-86
2021/01/19 02:54:27;;;;;;;148.43;53.87;;;;;;;;;;5014219;28;20177;-86
2021/01/19 02:56:52;;;;;;;189.67;65.87;;;;;;;;;;5014283;28;20228;-87
2021/01/19 02:59:38;;;;;;;184.70;61.77;;;;;;;;;;5014667;28;20233;-87
2021/01/19 03:02:06;;;;;;;175.93;59.47;;;;;;;;;;5014829;28;20165;-87
2021/01/19 03:04:32;;;;;;;151.33;52.97;;;;;;;;;;5014111;28;20624;-86
2021/01/19 03:07:01;;;;;;;144.53;53.33;;;;;;;;;;5014360;28;20173;-87
2021/01/19 03:09:27;;;;;;;147.37;55.83;;;;;;;;;;5014200;28;20201;-87
2021/01/19 03:11:55;;;;;;;147.47;56.70;;;;;;;;;;5014050;28;20239;-87
2021/01/19 03:14:20;;;;;;;127.07;52.63;;;;;;;;;;5014593;28;20173;-87
2021/01/19 03:16:46;;;;;;;150.37;54.50;;;;;;;;;;5014282;28;20169;-88
2021/01/19 03:19:12;;;;;;;159.10;55.00;;;;;;;;;;5014183;28;20539;-87
2021/01/19 03:21:37;;;;;;;127.97;51.83;;;;;;;;;;5013868;28;20169;-87
2021/01/19 03:24:03;;;;;;;142.50;53.03;;;;;;;;;;5012834;28;20620;-88
2021/01/19 03:26:28;;;;;;;129.13;51.50;;;;;;;;;;5012817;28;20207;-88
2021/01/19 03:28:53;;;;;;;130.37;50.80;;;;;;;;;;5013271;28;20197;-88
2021/01/19 03:31:19;;;;;;;140.23;52.40;;;;;;;;;;5014087;28;20173;-88
2021/01/19 03:33:44;;;;;;;147.17;55.83;;;;;;;;;;5014013;28;20525;-88
2021/01/19 03:36:09;;;;;;;141.80;52.73;;;;;;;;;;5014378;28;20211;-88
2021/01/19 03:38:35;;;;;;;145.17;54.53;;;;;;;;;;5015509;28;20276;-88
2021/01/19 03:41:01;;;;;;;162.90;58.73;;;;;;;;;;5017989;28;20191;-88
2021/01/19 03:43:26;;;;;;;139.07;51.97;;;;;;;;;;5016732;28;20526;-88
2021/01/19 03:45:51;;;;;;;178.93;62.10;;;;;;;;;;5017995;28;20296;-88
2021/01/19 03:48:17;;;;;;;172.53;64.03;;;;;;;;;;5016472;28;20208;-88
2021/01/19 03:50:42;;;;;;;178.90;63.13;;;;;;;;;;5018104;28;20177;-89
2021/01/19 03:53:07;;;;;;;154.07;57.27;;;;;;;;;;5017724;28;20555;-88
2021/01/19 03:55:33;;;;;;;159.63;56.77;;;;;;;;;;5017546;28;20173;-89
2021/01/19 03:57:58;;;;;;;160.37;56.43;;;;;;;;;;5018029;28;20237;-88
2021/01/19 04:00:24;;;;;;;138.93;55.13;;;;;;;;;;5017353;28;20193;-88
2021/01/19 04:02:49;;;;;;;150.03;55.73;;;;;;;;;;5017669;28;20169;-89
2021/01/19 04:05:14;;;;;;;144.70;54.53;;;;;;;;;;5017310;28;20211;-88
2021/01/19 04:07:40;;;;;;;142.07;54.00;;;;;;;;;;5017428;28;20201;-88
2021/01/19 04:10:07;;;;;;;155.37;57.50;;;;;;;;;;5017405;28;20625;-87
2021/01/19 04:12:32;;;;;;;147.90;58.80;;;;;;;;;;5018048;28;20177;-88
2021/01/19 04:14:57;;;;;;;153.73;54.43;;;;;;;;;;5017416;28;20192;-87
2021/01/19 04:17:23;;;;;;;159.53;59.50;;;;;;;;;;5017075;28;20663;-88
2021/01/19 04:19:48;;;;;;;161.83;59.73;;;;;;;;;;5016368;28;20612;-88
2021/01/19 04:22:13;;;;;;;164.47;58.97;;;;;;;;;;5016989;28;20170;-88
2021/01/19 04:24:39;;;;;;;161.13;57.63;;;;;;;;;;5017602;28;20228;-88
2021/01/19 04:27:04;;;;;;;165.40;58.80;;;;;;;;;;5016535;28;20227;-88
2021/01/19 04:29:29;;;;;;;171.67;63.73;;;;;;;;;;5016358;28;20241;-88
2021/01/19 04:31:54;;;;;;;169.10;62.83;;;;;;;;;;5017207;28;20714;-88
2021/01/19 04:34:20;;;;;;;171.37;63.00;;;;;;;;;;5015803;28;20188;-88
2021/01/19 04:36:45;;;;;;;171.03;60.80;;;;;;;;;;5017242;28;20260;-88
2021/01/19 04:39:10;;;;;;;160.90;61.10;;;;;;;;;;5016657;28;20169;-87
2021/01/19 04:41:39;;;;;;;148.37;59.37;;;;;;;;;;5017596;28;20176;-88
2021/01/19 04:44:04;;;;;;;158.13;60.30;;;;;;;;;;5017133;28;20617;-89
2021/01/19 04:46:30;;;;;;;177.33;60.70;;;;;;;;;;5015925;28;20180;-88
2021/01/19 04:48:56;;;;;;;191.13;66.17;;;;;;;;;;5015877;28;20193;-88
2021/01/19 04:51:22;;;;;;;197.33;66.87;;;;;;;;;;5015104;28;20196;-87
2021/01/19 04:53:58;;;;;;;193.90;69.20;;;;;;;;;;5016453;28;20292;-88
2021/01/19 04:56:25;;;;;;;179.00;63.53;;;;;;;;;;5017055;28;20673;-88
2021/01/19 04:58:52;;;;;;;149.67;57.67;;;;;;;;;;5016693;28;20714;-87
2021/01/19 05:01:29;;;;;;;138.93;56.03;;;;;;;;;;5016291;28;20169;-87
2021/01/19 05:04:07;;;;;;;164.17;62.23;;;;;;;;;;5017184;28;20164;-87
2021/01/19 05:06:42;;;;;;;183.10;64.87;;;;;;;;;;5015842;28;20188;-87
2021/01/19 05:09:08;;;;;;;185.27;63.33;;;;;;;;;;5016973;28;20223;-87
2021/01/19 05:11:39;;;;;;;189.33;65.60;;;;;;;;;;5016683;28;20204;-87
2021/01/19 05:14:08;;;;;;;186.73;66.27;;;;;;;;;;5016419;28;20248;-87
2021/01/19 05:16:34;;;;;;;185.60;65.57;;;;;;;;;;5015939;28;20177;-87
2021/01/19 05:19:00;;;;;;;189.90;67.43;;;;;;;;;;5016278;28;20178;-87
2021/01/19 05:21:26;;;;;;;173.00;62.90;;;;;;;;;;5016869;28;20215;-87
2021/01/19 05:23:51;;;;;;;199.67;70.23;;;;;;;;;;5016392;28;20201;-87
2021/01/19 05:26:17;;;;;;;179.87;63.50;;;;;;;;;;5016161;28;20685;-87
2021/01/19 05:28:47;;;;;;;185.43;65.20;;;;;;;;;;5014962;28;20551;-87
2021/01/19 05:31:16;;;;;;;168.20;65.23;;;;;;;;;;5015973;28;20173;-87
2021/01/19 05:33:41;;;;;;;180.83;66.57;;;;;;;;;;5015251;28;20185;-87
2021/01/19 05:36:10;;;;;;;182.17;65.53;;;;;;;;;;5015951;28;20232;-87
2021/01/19 05:38:43;;;;;;;167.23;63.67;;;;;;;;;;5016103;28;20640;-87
2021/01/19 05:41:08;;;;;;;168.20;67.07;;;;;;;;;;5015364;28;20512;-87
2021/01/19 05:43:34;;;;;;;171.50;66.07;;;;;;;;;;5015814;28;20180;-87
2021/01/19 05:45:59;;;;;;;177.27;62.60;;;;;;;;;;5016225;28;20174;-87
2021/01/19 05:48:36;;;;;;;167.93;62.63;;;;;;;;;;5015593;28;20201;-87
2021/01/19 05:51:01;;;;;;;176.50;68.17;;;;;;;;;;5014407;28;20184;-87
2021/01/19 05:53:29;;;;;;;222.77;80.80;;;;;;;;;;5015867;28;20184;-87
2021/01/19 05:55:59;;;;;;;190.13;71.90;;;;;;;;;;5015580;28;20201;-87
2021/01/19 05:58:33;;;;;;;195.87;72.23;;;;;;;;;;5015740;28;20255;-87
2021/01/19 06:01:01;;;;;;;174.50;68.13;;;;;;;;;;5015344;28;20172;-87
2021/01/19 06:03:28;;;;;;;174.47;69.43;;;;;;;;;;5014064;28;20518;-87
2021/01/19 06:05:53;;;;;;;172.13;65.17;;;;;;;;;;5015337;28;20178;-87
2021/01/19 06:08:25;;;;;;;179.70;68.23;;;;;;;;;;5015192;28;20663;-88
2021/01/19 06:10:50;;;;;;;168.57;68.13;;;;;;;;;;5015487;28;20639;-87
2021/01/19 06:13:17;;;;;;;180.30;72.33;;;;;;;;;;5014172;28;20189;-89
2021/01/19 06:15:42;;;;;;;182.90;72.07;;;;;;;;;;5014924;28;20324;-89
2021/01/19 06:18:08;;;;;;;180.23;72.33;;;;;;;;;;5014384;28;20646;-89
2021/01/19 06:20:42;;;;;;;169.93;65.10;;;;;;;;;;5015607;28;20203;-89
2021/01/19 06:23:09;;;;;;;189.53;73.33;;;;;;;;;;5015046;28;20174;-89
2021/01/19 06:25:35;;;;;;;178.50;69.20;;;;;;;;;;5015172;28;20304;-89
2021/01/19 06:28:07;;;;;;;172.70;67.33;;;;;;;;;;5013200;28;20293;-89
2021/01/19 06:30:32;;;;;;;180.60;72.53;;;;;;;;;;5015180;28;20183;-87
2021/01/19 06:32:59;;;;;;;184.77;73.70;;;;;;;;;;5014788;28;20524;-89
2021/01/19 06:35:24;;;;;;;189.73;76.10;;;;;;;;;;5015128;28;20175;-88
2021/01/19 06:37:50;;;;;;;225.60;88.67;;;;;;;;;;5014502;28;20184;-88
2021/01/19 06:40:19;;;;;;;220.00;87.93;;;;;;;;;;5014729;28;20624;-88
2021/01/19 06:42:53;;;;;;;218.17;84.13;;;;;;;;;;5014926;28;20175;-88
2021/01/19 06:45:20;;;;;;;183.30;71.20;;;;;;;;;;5014672;28;20153;-88
2021/01/19 06:47:52;;;;;;;172.70;68.43;;;;;;;;;;5014544;28;20189;-88
2021/01/19 06:50:18;;;;;;;174.07;68.53;;;;;;;;;;5014568;28;20222;-87
2021/01/19 06:52:48;;;;;;;188.47;75.10;;;;;;;;;;5014491;28;20176;-87
2021/01/19 06:55:23;;;;;;;278.47;104.73;;;;;;;;;;5013267;28;20197;-87
2021/01/19 06:58:21;;;;;;;249.20;90.43;;;;;;;;;;5013420;28;20303;-87
2021/01/19 07:00:47;;;;;;;228.10;87.27;;;;;;;;;;4991364;28;20212;-87
2021/01/19 07:03:19;;;;;;;200.80;74.43;;;;;;;;;;5014629;28;20173;-87
2021/01/19 07:05:52;;;;;;;198.80;77.87;;;;;;;;;;5014884;28;20508;-87
2021/01/19 07:08:20;;;;;;;193.83;73.70;;;;;;;;;;5012868;28;20652;-88
2021/01/19 07:10:52;;;;;;;225.10;81.47;;;;;;;;;;5014523;28;20610;-87
2021/01/19 07:13:22;;;;;;;203.70;75.30;;;;;;;;;;5013710;28;20204;-88
2021/01/19 07:15:56;;;;;;;205.23;77.30;;;;;;;;;;5014458;28;20200;-88
2021/01/19 07:18:42;;;;;;;193.63;73.97;;;;;;;;;;5014687;28;20177;-87
2021/01/19 07:21:27;;;;;;;185.97;71.83;;;;;;;;;;5014165;28;20249;-87
2021/01/19 07:24:11;;;;;;;222.80;83.23;;;;;;;;;;4992977;28;20228;-87
2021/01/19 07:26:37;;;;;;;212.23;81.33;;;;;;;;;;5012658;28;20663;-87
2021/01/19 07:29:03;;;;;;;247.87;89.73;;;;;;;;;;5013973;28;20204;-87
2021/01/19 07:31:28;;;;;;;243.27;84.20;;;;;;;;;;5014307;28;20230;-87
2021/01/19 07:33:55;;;;;;;248.83;90.13;;;;;;;;;;5014507;28;20180;-87
2021/01/19 07:36:21;;;;;;;228.60;85.90;;;;;;;;;;5013975;28;20200;-88
2021/01/19 07:38:47;;;;;;;201.77;76.70;;;;;;;;;;5012692;28;20592;-87
2021/01/19 07:41:25;;;;;;;206.93;80.07;;;;;;;;;;5012948;28;20270;-88
2021/01/19 07:43:51;;;;;;;192.37;76.77;;;;;;;;;;5013718;28;20623;-87
2021/01/19 07:46:21;;;;;;;214.67;80.43;;;;;;;;;;5013928;28;20165;-87
2021/01/19 07:48:46;;;;;;;218.70;82.40;;;;;;;;;;5013796;28;20207;-87
2021/01/19 07:51:12;;;;;;;204.83;81.13;;;;;;;;;;5013833;28;20175;-87
2021/01/19 07:53:50;;;;;;;216.97;89.37;;;;;;;;;;5013813;28;20632;-87
2021/01/19 07:56:25;;;;;;;200.23;74.93;;;;;;;;;;5013789;28;20188;-88
2021/01/19 07:58:50;;;;;;;237.43;89.67;;;;;;;;;;5013251;28;20235;-88
2021/01/19 08:01:29;;;;;;;226.57;89.13;;;;;;;;;;5013936;28;20184;-88
2021/01/19 08:03:55;;;;;;;231.30;91.93;;;;;;;;;;5013943;28;20170;-88
2021/01/19 08:06:31;;;;;;;256.73;98.77;;;;;;;;;;5013912;28;20190;-88
2021/01/19 08:08:56;;;;;;;246.13;101.53;;;;;;;;;;5013334;28;20339;-87
2021/01/19 08:11:22;;;;;;;225.40;90.30;;;;;;;;;;5013490;28;20204;-87
2021/01/19 08:13:56;;;;;;;225.77;89.53;;;;;;;;;;5013675;28;20585;-87
2021/01/19 08:16:26;;;;;;;197.87;74.30;;;;;;;;;;5013876;28;20272;-88
2021/01/19 08:18:58;;;;;;;224.13;88.73;;;;;;;;;;5013591;28;20181;-88
2021/01/19 08:21:24;;;;;;;214.37;87.70;;;;;;;;;;5014181;28;20165;-87
2021/01/19 08:23:49;;;;;;;215.00;86.80;;;;;;;;;;5014515;28;20184;-88
2021/01/19 08:26:14;;;;;;;211.63;86.80;;;;;;;;;;5017409;28;20268;-88
2021/01/19 08:28:40;;;;;;;268.17;100.50;;;;;;;;;;5016490;28;20231;-88
2021/01/19 08:31:15;;;;;;;283.23;104.07;;;;;;;;;;5016852;28;20216;-88
2021/01/19 08:33:49;;;;;;;534.23;222.80;;;;;;;;;;5016301;28;20276;-89
2021/01/19 08:36:18;;;;;;;446.50;172.00;;;;;;;;;;5016315;28;20163;-87
2021/01/19 08:38:46;;;;;;;417.00;156.80;;;;;;;;;;5004998;28;20647;-88
2021/01/19 08:41:17;;;;;;;426.07;175.90;;;;;;;;;;5005975;28;20264;-87
2021/01/19 08:43:53;;;;;;;291.03;120.17;;;;;;;;;;4999732;28;20170;-87
2021/01/19 08:46:18;;;;;;;316.60;128.47;;;;;;;;;;5001586;28;20185;-86
2021/01/19 08:48:44;;;;;;;289.97;129.27;;;;;;;;;;5016616;28;20224;-88
2021/01/19 08:51:18;;;;;;;234.83;99.33;;;;;;;;;;5015635;28;20181;-87
2021/01/19 08:53:43;;;;;;;232.30;90.87;;;;;;;;;;5016403;28;20215;-87
2021/01/19 08:56:15;;;;;;;246.47;96.93;;;;;;;;;;5016395;28;20181;-86
2021/01/19 08:58:41;;;;;;;239.23;96.93;;;;;;;;;;5016274;28;20236;-87
2021/01/19 09:01:06;;;;;;;224.20;91.57;;;;;;;;;;5015528;28;20544;-86
2021/01/19 09:03:31;;;;;;;195.73;85.47;;;;;;;;;;5032712;28;20168;-87
2021/01/19 09:06:01;;;;;;;212.17;90.40;;;;;;;;;;5034677;28;20184;-86
2021/01/19 09:08:28;;;;;;;233.27;98.83;;;;;;;;;;5034170;28;20671;-87
2021/01/19 09:11:02;;;;;;;234.20;93.63;;;;;;;;;;5034941;28;20183;-86
2021/01/19 09:13:28;;;;;;;191.10;77.50;;;;;;;;;;5036689;28;20153;-86
2021/01/19 09:15:53;;;;;;;247.90;95.50;;;;;;;;;;5036644;28;20176;-87
2021/01/19 09:18:18;;;;;;;236.60;95.27;;;;;;;;;;5036015;28;20638;-86
2021/01/19 09:20:44;;;;;;;232.70;90.10;;;;;;;;;;5020737;28;20181;-86
2021/01/19 09:23:15;;;;;;;229.40;96.10;;;;;;;;;;4996304;28;20170;-86
2021/01/19 09:25:41;;;;;;;191.70;83.43;;;;;;;;;;4996290;28;20184;-86
2021/01/19 09:28:06;;;;;;;232.33;89.73;;;;;;;;;;4995558;28;20233;-87
2021/01/19 09:30:35;;;;;;;233.30;92.97;;;;;;;;;;4996586;28;20182;-85
2021/01/19 09:33:10;;;;;;;206.43;85.80;;;;;;;;;;5009763;28;20512;-86
2021/01/19 09:35:36;;;;;;;213.13;84.30;;;;;;;;;;5014935;28;20652;-86
2021/01/19 09:38:02;;;;;;;239.57;95.97;;;;;;;;;;5015828;28;20240;-86
2021/01/19 09:40:34;;;;;;;229.30;92.53;;;;;;;;;;5015521;28;20195;-86
2021/01/19 09:43:07;;;;;;;246.57;97.57;;;;;;;;;;5015749;28;20169;-86
2021/01/19 09:45:33;;;;;;;238.17;99.00;;;;;;;;;;5015724;28;20591;-87
2021/01/19 09:47:59;;;;;;;238.83;97.07;;;;;;;;;;5015586;28;20248;-86
2021/01/19 09:50:24;;;;;;;233.87;90.27;;;;;;;;;;5014993;28;20579;-87
2021/01/19 09:52:49;;;;;;;267.60;108.47;;;;;;;;;;5015327;28;20161;-87
2021/01/19 09:55:17;;;;;;;236.10;94.43;;;;;;;;;;5015511;28;20773;-87
2021/01/19 09:57:42;;;;;;;228.50;94.23;;;;;;;;;;5014087;28;20223;-86
2021/01/19 10:00:09;;;;;;;251.57;102.37;;;;;;;;;;5014996;28;20291;-85
2021/01/19 10:02:35;;;;;;;215.33;86.23;;;;;;;;;;5015017;28;20508;-86
2021/01/19 10:05:01;;;;;;;196.10;83.17;;;;;;;;;;5014736;28;20188;-86
2021/01/19 10:07:27;;;;;;;192.97;79.60;;;;;;;;;;5020920;28;20635;-86
2021/01/19 10:09:53;;;;;;;210.57;87.40;;;;;;;;;;5015030;28;20564;-86
2021/01/19 10:12:18;;;;;;;206.27;85.80;;;;;;;;;;5014845;28;20239;-85
2021/01/19 10:14:44;;;;;;;209.87;85.77;;;;;;;;;;5015122;28;20164;-86
2021/01/19 10:17:09;;;;;;;208.47;82.90;;;;;;;;;;5014861;28;20284;-86
2021/01/19 10:19:35;;;;;;;202.13;80.43;;;;;;;;;;5013792;28;20263;-86
2021/01/19 10:22:04;;;;;;;200.07;83.97;;;;;;;;;;5014772;28;20647;-85
2021/01/19 10:24:30;;;;;;;205.60;87.40;;;;;;;;;;5015058;28;20578;-85
2021/01/19 10:27:00;;;;;;;223.80;91.50;;;;;;;;;;5015023;28;20220;-85
2021/01/19 10:29:34;;;;;;;229.77;89.40;;;;;;;;;;5015304;28;20196;-84
2021/01/19 10:32:00;;;;;;;229.23;96.87;;;;;;;;;;5014393;28;20192;-85
2021/01/19 10:34:27;;;;;;;221.70;95.73;;;;;;;;;;5014332;28;20658;-85
2021/01/19 10:36:53;;;;;;;228.40;93.77;;;;;;;;;;5012486;28;20177;-87
2021/01/19 10:39:20;;;;;;;226.50;93.67;;;;;;;;;;5013787;28;20722;-87
2021/01/19 10:41:46;;;;;;;228.40;93.77;;;;;;;;;;5014052;28;20205;-87
2021/01/19 10:44:12;;;;;;;237.20;100.20;;;;;;;;;;5003187;28;20185;-86
2021/01/19 10:46:38;;;;;;;241.20;97.50;;;;;;;;;;4993991;28;20178;-87
2021/01/19 10:49:09;;;;;;;217.23;91.90;;;;;;;;;;4994594;28;20205;-87
2021/01/19 10:51:35;;;;;;;236.33;96.47;;;;;;;;;;4994270;28;20178;-87
2021/01/19 10:54:06;;;;;;;222.70;92.60;;;;;;;;;;4994015;28;20201;-86
2021/01/19 10:56:32;;;;;;;242.07;115.43;;;;;;;;;;4993115;28;20182;-86
2021/01/19 10:58:57;;;;;;;260.80;114.37;;;;;;;;;;4993875;28;20225;-87
2021/01/19 11:01:24;;;;;;;266.43;103.57;;;;;;;;;;4992924;28;20217;-87
2021/01/19 11:03:49;;;;;;;198.17;88.13;;;;;;;;;;4994165;28;20205;-86
2021/01/19 11:06:16;;;;;;;189.83;84.67;;;;;;;;;;4993972;28;20200;-87
2021/01/19 11:08:41;;;;;;;204.20;87.23;;;;;;;;;;4992420;28;20264;-87
2021/01/19 11:11:09;;;;;;;216.97;93.17;;;;;;;;;;4994132;28;20209;-87
2021/01/19 11:13:34;;;;;;;202.50;86.13;;;;;;;;;;4994046;28;20178;-87
2021/01/19 11:16:00;;;;;;;200.00;83.47;;;;;;;;;;4992738;28;20217;-87
2021/01/19 11:18:26;;;;;;;184.00;83.53;;;;;;;;;;4993915;28;20651;-87
2021/01/19 11:20:52;;;;;;;212.50;88.70;;;;;;;;;;4994064;28;20181;-87
2021/01/19 11:23:17;;;;;;;205.47;88.97;;;;;;;;;;4993913;28;20174;-88
2021/01/19 11:25:42;;;;;;;207.07;87.20;;;;;;;;;;4993969;28;20269;-87
2021/01/19 11:28:07;;;;;;;228.67;97.70;;;;;;;;;;4993299;28;20735;-87
2021/01/19 11:30:33;;;;;;;274.30;111.27;;;;;;;;;;4993556;28;20697;-87
2021/01/19 11:32:59;;;;;;;266.50;109.43;;;;;;;;;;4993835;28;20166;-87
2021/01/19 11:35:24;;;;;;;269.63;104.40;;;;;;;;;;4992623;28;20645;-87
2021/01/19 11:37:50;;;;;;;198.60;86.90;;;;;;;;;;4992200;28;20264;-86
2021/01/19 11:40:16;;;;;;;198.40;90.60;;;;;;;;;;4992547;28;20247;-86
2021/01/19 11:42:42;;;;;;;217.67;93.47;;;;;;;;;;5009761;28;20191;-86
2021/01/19 11:45:07;;;;;;;214.60;98.17;;;;;;;;;;5014974;28;20177;-87
2021/01/19 11:47:32;;;;;;;203.27;89.40;;;;;;;;;;5016273;28;20215;-87
2021/01/19 11:49:58;;;;;;;204.03;91.40;;;;;;;;;;5013213;28;20180;-87
2021/01/19 11:52:23;;;;;;;203.47;89.63;;;;;;;;;;5012053;28;20188;-87
2021/01/19 11:54:49;;;;;;;186.80;84.40;;;;;;;;;;5012782;28;20267;-87
2021/01/19 11:57:14;;;;;;;215.80;94.40;;;;;;;;;;5012646;28;20173;-87
2021/01/19 11:59:40;;;;;;;188.03;82.77;;;;;;;;;;5015634;28;20224;-87
2021/01/19 12:02:05;;;;;;;226.50;98.93;;;;;;;;;;5017274;28;20180;-88
2021/01/19 12:04:31;;;;;;;303.63;135.10;;;;;;;;;;5017234;28;20227;-87
2021/01/19 12:06:57;;;;;;;278.07;122.53;;;;;;;;;;5016716;28;20220;-87
2021/01/19 12:09:23;;;;;;;244.23;108.53;;;;;;;;;;5016969;28;20209;-88
2021/01/19 12:11:54;;;;;;;214.47;99.07;;;;;;;;;;5016838;28;20647;-87
2021/01/19 12:14:19;;;;;;;203.43;93.60;;;;;;;;;;5016538;28;20174;-86
2021/01/19 12:16:46;;;;;;;194.70;86.33;;;;;;;;;;5016312;28;20177;-88
2021/01/19 12:19:14;;;;;;;201.20;92.40;;;;;;;;;;5015724;28;20187;-88
2021/01/19 12:21:46;;;;;;;186.50;84.97;;;;;;;;;;5016981;28;20165;-88
2021/01/19 12:24:12;;;;;;;203.63;93.67;;;;;;;;;;5015488;28;20272;-88
2021/01/19 12:26:37;;;;;;;218.77;102.33;;;;;;;;;;5016777;28;20256;-88
2021/01/19 12:29:03;;;;;;;193.53;85.60;;;;;;;;;;5014280;28;20215;-87
2021/01/19 12:31:29;;;;;;;190.43;90.40;;;;;;;;;;5015824;28;20180;-88
2021/01/19 12:33:56;;;;;;;192.50;93.20;;;;;;;;;;5015596;28;20173;-87
2021/01/19 12:36:21;;;;;;;230.80;103.67;;;;;;;;;;5015430;28;20200;-87
2021/01/19 12:38:48;;;;;;;231.27;100.23;;;;;;;;;;5014847;28;20619;-87
2021/01/19 12:41:15;;;;;;;210.80;92.43;;;;;;;;;;5015113;28;20169;-87
2021/01/19 12:43:40;;;;;;;206.87;92.33;;;;;;;;;;5015368;28;20177;-87
2021/01/19 12:46:05;;;;;;;219.30;95.23;;;;;;;;;;5013899;28;20227;-88
2021/01/19 12:48:31;;;;;;;231.23;103.30;;;;;;;;;;5014610;28;20208;-87
2021/01/19 12:50:56;;;;;;;236.43;103.33;;;;;;;;;;5013989;28;20656;-87
2021/01/19 12:53:21;;;;;;;222.97;97.83;;;;;;;;;;5015349;28;20620;-88
2021/01/19 12:55:47;;;;;;;215.90;101.93;;;;;;;;;;5015628;28;20203;-88
2021/01/19 12:58:12;;;;;;;229.97;105.93;;;;;;;;;;5015584;28;20229;-88
2021/01/19 13:00:39;;;;;;;228.47;98.50;;;;;;;;;;5014488;28;20201;-88
2021/01/19 13:03:04;;;;;;;258.07;106.40;;;;;;;;;;5015575;28;20174;-87
2021/01/19 13:05:31;;;;;;;250.57;107.10;;;;;;;;;;5015740;28;20168;-87
2021/01/19 13:07:56;;;;;;;273.30;116.33;;;;;;;;;;5015157;28;20201;-88
2021/01/19 13:10:22;;;;;;;271.60;118.90;;;;;;;;;;5013022;28;20207;-89
2021/01/19 13:12:47;;;;;;;248.67;110.03;;;;;;;;;;5015409;28;20569;-88
2021/01/19 13:15:13;;;;;;;245.73;107.40;;;;;;;;;;5014212;28;20181;-88
2021/01/19 13:17:39;;;;;;;261.87;111.13;;;;;;;;;;5014307;28;20668;-88
2021/01/19 13:20:05;;;;;;;233.60;104.90;;;;;;;;;;5015736;28;20260;-87
2021/01/19 13:22:31;;;;;;;276.17;118.40;;;;;;;;;;5015357;28;20173;-87
2021/01/19 13:24:57;;;;;;;249.57;107.50;;;;;;;;;;5015014;28;20947;-87
2021/01/19 13:27:22;;;;;;;231.03;100.63;;;;;;;;;;5013863;28;20181;-87
2021/01/19 13:29:47;;;;;;;248.40;109.37;;;;;;;;;;5015229;28;20647;-87
2021/01/19 13:32:13;;;;;;;241.80;106.50;;;;;;;;;;5014000;28;20274;-88
2021/01/19 13:34:39;;;;;;;284.23;132.00;;;;;;;;;;5013545;28;20177;-89
2021/01/19 13:37:04;;;;;;;248.70;107.73;;;;;;;;;;5015102;28;20196;-88
2021/01/19 13:39:29;;;;;;;256.50;111.70;;;;;;;;;;5014507;28;20181;-89
2021/01/19 13:41:55;;;;;;;269.67;114.07;;;;;;;;;;5013513;28;20181;-89
2021/01/19 13:44:21;;;;;;;251.70;109.30;;;;;;;;;;5013451;28;20623;-89
2021/01/19 13:46:47;;;;;;;239.43;107.03;;;;;;;;;;5014122;28;20734;-88
2021/01/19 13:49:13;;;;;;;299.77;129.70;;;;;;;;;;5014498;28;20211;-87
2021/01/19 13:51:38;;;;;;;275.03;118.10;;;;;;;;;;5015035;28;20591;-88
2021/01/19 13:54:03;;;;;;;242.37;106.87;;;;;;;;;;5014526;28;20166;-88
2021/01/19 13:56:29;;;;;;;252.60;109.53;;;;;;;;;;5013232;28;20184;-88
2021/01/19 13:58:54;;;;;;;281.20;127.27;;;;;;;;;;5013978;28;20236;-88
2021/01/19 14:01:20;;;;;;;278.50;126.30;;;;;;;;;;5012999;28;20181;-88
2021/01/19 14:03:45;;;;;;;223.53;106.20;;;;;;;;;;5014161;28;20181;-87